Wharton, Texas
Current Conditions -  °F | °C
As of 1:55 PM on Saturday 25 Oct 2014 (Local Time) from KARM Reporting Station
Clear Clear  
Wind Chill: 83°   Ceiling: Unl
Heat Index: 83°   Visibility: 10mi
Dew Point: 57°   Wind: 5mph
Humidity: 40%   Direction: 130°SE
Pressure: 30.13"   Gusts: NA
Location:  29.32°N, 96.1°W
Report Text: KARM 251855Z AUTO 13004KT 10SM CLR 29/14 A3013 RMK AO2 T02860138
Loading
Personal Weather Stations






























Interactive Weather Map
Tropical Storm Tracking
New forecast layout! Learn more

10-Day Weather Forecast

Advertisements
Track Severe Weather on mobile